Time;durP1;ratioP1;P1;durP2;ratioP2;P2;SDS_P1;SDS_P2;PMS_P1;PMS_P2;Temp;Humidity;BMP_temperature;BMP_pressure;BME280_temperature;BME280_humidity;BME280_pressure;Samples;Min_cycle;Max_cycle;Signal;HPM_P1;HPM_P2
2022/10/27 00:01:00;;;;;;;12.73;4.47;;;;;;;19.58;100.00;97175.53;5099041;28;20083;-45
2022/10/27 00:03:28;;;;;;;13.80;4.20;;;;;;;19.61;100.00;97167.13;5101352;28;20094;-49
2022/10/27 00:06:04;;;;;;;8.68;3.95;;;;;;;19.62;100.00;97166.13;5089719;28;20097;-41
2022/10/27 00:08:32;;;;;;;14.30;4.25;;;;;;;19.56;100.00;97172.19;5093222;28;20475;-42
2022/10/27 00:11:02;;;;;;;11.07;4.00;;;;;;;19.56;100.00;97166.03;5099071;28;20102;-50
2022/10/27 00:13:31;;;;;;;12.30;4.60;;;;;;;19.49;100.00;97167.78;5100145;28;20086;-48
2022/10/27 00:16:00;;;;;;;13.05;4.55;;;;;;;19.31;100.00;97171.63;5101044;28;20505;-42
2022/10/27 00:18:29;;;;;;;10.70;3.92;;;;;;;18.48;100.00;97183.94;5095042;28;20076;-45
2022/10/27 00:21:00;;;;;;;11.82;4.30;;;;;;;18.35;100.00;97181.00;5095632;28;20460;-42
2022/10/27 00:23:30;;;;;;;11.07;4.28;;;;;;;17.70;100.00;97187.44;5097990;28;20079;-48
2022/10/27 00:25:59;;;;;;;11.63;3.97;;;;;;;18.02;100.00;97186.50;5097725;28;20103;-46
2022/10/27 00:28:28;;;;;;;9.07;3.85;;;;;;;18.71;100.00;97180.44;5096811;28;20457;-45
2022/10/27 00:31:00;;;;;;;10.13;3.78;;;;;;;18.40;100.00;97185.81;5094487;28;20481;-42
2022/10/27 00:33:29;;;;;;;11.02;3.85;;;;;;;18.71;100.00;97191.13;5096980;28;20083;-46
2022/10/27 00:36:04;;;;;;;16.88;4.00;;;;;;;18.73;100.00;97187.31;5097345;28;20079;-48
2022/10/27 00:38:33;;;;;;;9.50;3.95;;;;;;;18.78;100.00;97186.75;5099788;28;20103;-47
2022/10/27 00:41:02;;;;;;;11.95;3.95;;;;;;;18.73;100.00;97189.16;5103953;28;20079;-47
2022/10/27 00:43:32;;;;;;;6.70;3.72;;;;;;;18.34;100.00;97187.38;5102411;28;20064;-46
2022/10/27 00:46:04;;;;;;;11.88;3.60;;;;;;;18.19;100.00;97194.44;5102588;28;20090;-45
2022/10/27 00:48:32;;;;;;;8.45;3.70;;;;;;;18.25;100.00;97196.41;5102737;28;20059;-44
2022/10/27 00:51:02;;;;;;;6.97;3.97;;;;;;;18.32;100.00;97194.72;5101372;28;20145;-43
2022/10/27 00:53:33;;;;;;;8.38;3.70;;;;;;;17.72;100.00;97197.91;5100357;28;20123;-47
2022/10/27 00:56:01;;;;;;;;;;;;;;;18.20;100.00;97193.44;5105233;28;20086;-43
2022/10/27 00:58:29;;;;;;;9.80;4.22;;;;;;;18.24;100.00;97202.78;5104782;28;19967;-43
2022/10/27 01:00:58;;;;;;;12.20;4.05;;;;;;;17.94;100.00;97207.06;5101090;28;20083;-47
2022/10/27 01:03:26;;;;;;;7.38;3.65;;;;;;;17.66;100.00;97211.97;5094499;28;20071;-42
2022/10/27 01:05:55;;;;;;;89.03;6.57;;;;;;;18.04;100.00;97210.38;5103180;28;20083;-42
2022/10/27 01:08:24;;;;;;;7.97;3.70;;;;;;;17.77;100.00;97212.44;5084872;28;20040;-46
2022/10/27 01:10:53;;;;;;;5.82;3.35;;;;;;;17.62;100.00;97214.13;5100564;28;20075;-44
2022/10/27 01:13:21;;;;;;;10.40;3.70;;;;;;;17.33;100.00;97223.50;5100137;28;20484;-48
2022/10/27 01:15:58;;;;;;;11.30;3.90;;;;;;;17.79;100.00;97210.44;5100134;28;20083;-50
2022/10/27 01:18:30;;;;;;;12.40;4.20;;;;;;;17.79;100.00;97210.44;5097544;28;20067;-48
2022/10/27 01:21:28;;;;;;;6.15;3.55;;;;;;;18.01;100.00;97208.03;5101450;28;20090;-47
2022/10/27 01:24:20;;;;;;;10.82;3.67;;;;;;;18.09;100.00;97208.00;5100145;28;20125;-47
2022/10/27 01:26:52;;;;;;;10.52;3.63;;;;;;;18.13;100.00;97209.31;5096890;28;20094;-46
2022/10/27 01:29:55;;;;;;;6.60;3.80;;;;;;;18.03;100.00;97203.34;5104541;28;20075;-42
2022/10/27 01:32:29;;;;;;;6.80;3.40;;;;;;;17.98;100.00;97200.38;5055390;28;20086;-45
2022/10/27 01:35:02;;;;;;;6.78;3.63;;;;;;;18.08;100.00;97197.50;5103206;28;20091;-42
2022/10/27 01:37:37;;;;;;;7.28;3.67;;;;;;;17.89;100.00;97204.06;5097414;28;20075;-42
2022/10/27 01:40:08;;;;;;;6.15;3.47;;;;;;;17.67;100.00;97201.09;5105174;28;20086;-43
2022/10/27 01:42:41;;;;;;;5.45;3.20;;;;;;;17.35;100.00;97202.00;5103178;28;20090;-42
2022/10/27 01:45:11;;;;;;;7.13;3.38;;;;;;;17.49;100.00;97205.81;5106103;28;20542;-46
2022/10/27 01:47:41;;;;;;;6.85;3.13;;;;;;;17.65;100.00;97211.13;5102194;28;20485;-47
2022/10/27 01:50:09;;;;;;;4.80;3.22;;;;;;;17.26;100.00;97208.34;5100404;28;20067;-41
2022/10/27 01:52:41;;;;;;;5.22;3.00;;;;;;;17.35;100.00;97206.53;5102092;28;20067;-44
2022/10/27 01:55:14;;;;;;;6.18;3.13;;;;;;;16.38;100.00;97211.59;5101363;28;20071;-43
2022/10/27 01:58:09;;;;;;;12.05;3.47;;;;;;;15.79;100.00;97219.47;5100164;28;20083;-53
2022/10/27 02:00:45;;;;;;;6.40;3.10;;;;;;;16.96;100.00;97210.69;5094899;28;20068;-44
2022/10/27 02:03:17;;;;;;;8.70;3.47;;;;;;;16.61;100.00;97211.78;5097300;28;20196;-45
2022/10/27 02:05:50;;;;;;;6.82;3.30;;;;;;;17.18;100.00;97211.03;5106235;28;20067;-43
2022/10/27 02:08:23;;;;;;;7.13;3.50;;;;;;;17.15;100.00;97206.03;5101620;28;20074;-46
2022/10/27 02:10:55;;;;;;;6.38;3.55;;;;;;;17.35;100.00;97198.53;5101150;28;20067;-51
2022/10/27 02:13:23;;;;;;;7.30;3.22;;;;;;;17.26;100.00;97211.00;5099927;28;20091;-45
2022/10/27 02:15:54;;;;;;;4.85;3.50;;;;;;;17.32;100.00;97197.84;5104067;28;20063;-42
2022/10/27 02:18:26;;;;;;;8.93;3.50;;;;;;;17.40;100.00;97199.66;5099437;28;20064;-41
2022/10/27 02:20:57;;;;;;;4.80;2.63;;;;;;;17.38;100.00;97191.03;5096041;28;20079;-46
2022/10/27 02:23:25;;;;;;;4.15;2.65;;;;;;;17.20;100.00;97209.84;5094733;28;20458;-42
2022/10/27 02:25:58;;;;;;;6.32;2.50;;;;;;;17.00;100.00;97209.38;5097151;28;20086;-47
2022/10/27 02:28:30;;;;;;;5.35;2.78;;;;;;;17.17;100.00;97214.69;5099961;28;20108;-42
2022/10/27 02:30:59;;;;;;;6.38;2.30;;;;;;;17.00;100.00;97204.03;5101218;28;20502;-45
2022/10/27 02:33:29;;;;;;;5.32;2.83;;;;;;;16.83;100.00;97213.03;5097086;28;20094;-42
2022/10/27 02:35:57;;;;;;;5.15;2.70;;;;;;;16.98;100.00;97208.69;5095598;28;20083;-44
2022/10/27 02:38:26;;;;;;;5.00;2.83;;;;;;;16.57;100.00;97216.59;5095934;28;20079;-43
2022/10/27 02:40:54;;;;;;;4.50;2.60;;;;;;;15.68;100.00;97218.94;5075603;28;20059;-42
2022/10/27 02:43:22;;;;;;;4.72;3.00;;;;;;;15.52;100.00;97222.28;5102500;28;20075;-49
2022/10/27 02:45:51;;;;;;;6.70;2.53;;;;;;;15.79;100.00;97219.47;5099706;28;20067;-49
2022/10/27 02:48:19;;;;;;;5.32;2.78;;;;;;;15.53;100.00;97223.97;5101886;28;20082;-42
2022/10/27 02:50:49;;;;;;;7.75;3.22;;;;;;;16.40;100.00;97214.91;5100350;28;20631;-45
2022/10/27 02:53:17;;;;;;;8.70;3.10;;;;;;;16.58;100.00;97218.25;5097529;28;20083;-43
2022/10/27 02:55:45;;;;;;;6.43;2.97;;;;;;;16.27;100.00;97225.19;5097094;28;20555;-47
2022/10/27 02:58:13;;;;;;;6.40;3.08;;;;;;;15.80;100.00;97220.34;5098282;28;20084;-43
2022/10/27 03:00:42;;;;;;;4.18;2.63;;;;;;;16.05;100.00;97224.78;5104122;28;20079;-44
2022/10/27 03:03:10;;;;;;;3.15;2.83;;;;;;;15.65;100.00;97220.88;5096486;28;20083;-43
2022/10/27 03:05:38;;;;;;;5.38;3.20;;;;;;;16.52;100.00;97224.25;5099048;28;20083;-44
2022/10/27 03:08:08;;;;;;;7.10;2.90;;;;;;;16.18;100.00;97223.50;5104435;28;20059;-41
2022/10/27 03:10:36;;;;;;;3.47;2.40;;;;;;;16.38;100.00;97224.91;5104780;28;20074;-46
2022/10/27 03:13:04;;;;;;;5.40;2.85;;;;;;;16.40;100.00;97227.38;5101708;28;20083;-43
2022/10/27 03:15:33;;;;;;;4.10;2.47;;;;;;;16.19;100.00;97225.16;5104933;28;20071;-45
2022/10/27 03:18:01;;;;;;;4.95;2.17;;;;;;;16.25;100.00;97220.03;5104142;28;20079;-45
2022/10/27 03:20:29;;;;;;;4.28;2.40;;;;;;;15.72;100.00;97217.63;5100767;28;20063;-42
2022/10/27 03:22:58;;;;;;;5.13;2.28;;;;;;;16.23;100.00;97215.84;5094918;28;21988;-48
2022/10/27 03:25:27;;;;;;;4.80;2.55;;;;;;;16.23;100.00;97214.03;5106245;28;20485;-43
2022/10/27 03:27:56;;;;;;;4.20;2.53;;;;;;;15.63;100.00;97222.03;5098934;28;20083;-42
2022/10/27 03:30:24;;;;;;;3.45;2.63;;;;;;;16.31;100.00;97219.38;5099246;28;20535;-43
2022/10/27 03:32:52;;;;;;;2.95;2.22;;;;;;;15.75;100.00;97225.28;5103036;28;20453;-42
2022/10/27 03:35:21;;;;;;;3.63;2.25;;;;;;;15.92;100.00;97224.38;5101365;28;20089;-41
2022/10/27 03:37:55;;;;;;;5.18;2.38;;;;;;;15.89;100.00;97217.53;5097127;28;20063;-43
2022/10/27 03:40:24;;;;;;;4.97;2.33;;;;;;;14.93;100.00;97230.00;5099743;28;20122;-43
2022/10/27 03:42:57;;;;;;;4.53;2.45;;;;;;;15.40;100.00;97227.03;5096509;28;20105;-46
2022/10/27 03:45:26;;;;;;;4.38;2.15;;;;;;;14.75;100.00;97230.00;5100151;28;20082;-42
2022/10/27 03:48:01;;;;;;;3.85;2.20;;;;;;;15.79;100.00;97224.81;5097353;28;20732;-45
2022/10/27 03:50:30;;;;;;;6.00;2.47;;;;;;;15.73;100.00;97227.28;5094222;28;20078;-44
2022/10/27 03:52:58;;;;;;;2.95;2.08;;;;;;;15.28;100.00;97225.63;5092782;28;20086;-43
2022/10/27 03:55:27;;;;;;;3.78;2.45;;;;;;;15.04;100.00;97227.13;5098858;28;20086;-41
2022/10/27 03:57:57;;;;;;;5.97;2.70;;;;;;;14.70;100.00;97227.81;5080183;28;20064;-42
2022/10/27 04:00:27;;;;;;;4.50;2.50;;;;;;;15.77;100.00;97228.63;5095335;28;20063;-45
2022/10/27 04:02:55;;;;;;;2.67;2.00;;;;;;;15.61;100.00;97226.66;5096790;28;20083;-45
2022/10/27 04:05:24;;;;;;;3.10;2.22;;;;;;;15.43;100.00;97224.91;5103271;28;20089;-43
2022/10/27 04:07:52;;;;;;;5.07;2.78;;;;;;;15.15;100.00;97232.19;5095086;28;20489;-46
2022/10/27 04:10:21;;;;;;;2.20;2.00;;;;;;;15.36;100.00;97226.53;5092746;28;20072;-42
2022/10/27 04:12:49;;;;;;;6.35;1.90;;;;;;;15.55;100.00;97232.63;5103383;28;20075;-41
2022/10/27 04:15:20;;;;;;;9.73;2.03;;;;;;;14.98;100.00;97234.88;5107751;28;20087;-47
2022/10/27 04:17:48;;;;;;;2.90;2.45;;;;;;;15.31;100.00;97228.81;5099829;28;20095;-41
2022/10/27 04:20:17;;;;;;;16.00;2.40;;;;;;;14.66;100.00;97230.94;5099748;28;20095;-41
2022/10/27 04:22:45;;;;;;;11.15;2.80;;;;;;;14.09;100.00;97244.34;5103672;28;20103;-45
2022/10/27 04:25:13;;;;;;;3.85;2.30;;;;;;;14.32;100.00;97252.75;5100220;28;20545;-46
2022/10/27 04:27:42;;;;;;;3.20;2.47;;;;;;;14.71;100.00;97248.06;5099262;28;20545;-41
2022/10/27 04:30:11;;;;;;;4.65;2.83;;;;;;;15.23;100.00;97247.34;5110217;28;20079;-41
2022/10/27 04:32:41;;;;;;;5.07;2.60;;;;;;;14.51;100.00;97249.19;5101399;28;20084;-44
2022/10/27 04:35:09;;;;;;;4.63;2.58;;;;;;;14.03;100.00;97252.91;5097530;28;20078;-44
2022/10/27 04:37:37;;;;;;;5.30;3.22;;;;;;;14.81;100.00;97248.00;5097413;28;20076;-44
2022/10/27 04:40:07;;;;;;;3.30;2.67;;;;;;;14.65;100.00;97251.31;5095010;28;20088;-49
2022/10/27 04:42:35;;;;;;;2.35;2.15;;;;;;;14.92;100.00;97252.22;5107761;28;20084;-42
2022/10/27 04:45:04;;;;;;;2.97;2.47;;;;;;;15.01;100.00;97250.50;5092804;28;20802;-45
2022/10/27 04:47:32;;;;;;;3.88;2.40;;;;;;;14.90;100.00;97246.22;5092778;28;20076;-45
2022/10/27 04:50:01;;;;;;;3.85;2.33;;;;;;;13.82;100.00;97257.59;5099446;28;20071;-48
2022/10/27 04:52:30;;;;;;;4.28;3.00;;;;;;;14.49;100.00;97251.13;5092544;28;20076;-42
2022/10/27 04:54:58;;;;;;;9.90;3.05;;;;;;;14.46;100.00;97249.59;5093923;28;20080;-45
2022/10/27 04:57:26;;;;;;;5.85;2.97;;;;;;;14.29;100.00;97249.56;5092374;28;20086;-48
2022/10/27 04:59:54;;;;;;;8.15;3.20;;;;;;;14.39;100.00;97247.69;5099745;28;20094;-45
2022/10/27 05:02:22;;;;;;;8.35;4.05;;;;;;;14.72;100.00;97255.03;5105619;28;20094;-46
2022/10/27 05:04:51;;;;;;;4.88;3.50;;;;;;;14.90;100.00;97251.53;5099829;28;20286;-46
2022/10/27 05:07:20;;;;;;;4.85;3.35;;;;;;;14.99;100.00;97245.31;5099130;28;20083;-42
2022/10/27 05:09:49;;;;;;;4.65;2.72;;;;;;;14.26;100.00;97253.34;5100069;28;20086;-43
2022/10/27 05:12:17;;;;;;;2.97;2.50;;;;;;;14.60;100.00;97250.94;5098362;28;20082;-47
2022/10/27 05:14:45;;;;;;;3.85;2.50;;;;;;;14.67;100.00;97251.19;5098621;28;20083;-45
2022/10/27 05:17:13;;;;;;;3.33;2.28;;;;;;;14.82;100.00;97254.13;5098529;28;20079;-44
2022/10/27 05:19:49;;;;;;;9.77;2.50;;;;;;;14.58;100.00;97246.75;5105316;28;20087;-43
2022/10/27 05:22:18;;;;;;;3.85;2.53;;;;;;;14.45;100.00;97250.59;5099603;28;20438;-41
2022/10/27 05:24:47;;;;;;;5.00;2.65;;;;;;;14.62;100.00;97248.13;5111224;28;20067;-45
2022/10/27 05:27:16;;;;;;;6.47;2.83;;;;;;;14.38;100.00;97252.19;5093479;28;20072;-42
2022/10/27 05:29:44;;;;;;;5.35;2.55;;;;;;;14.62;100.00;97258.75;5100235;28;20094;-48
2022/10/27 05:32:12;;;;;;;6.10;2.80;;;;;;;14.43;100.00;97257.84;5094412;28;20071;-47
2022/10/27 05:34:40;;;;;;;3.10;2.55;;;;;;;14.37;100.00;97255.78;5103667;28;20544;-47
2022/10/27 05:37:09;;;;;;;6.93;2.40;;;;;;;14.58;100.00;97258.22;5098714;28;20063;-44
2022/10/27 05:39:37;;;;;;;5.88;2.65;;;;;;;14.58;100.00;97252.06;5096131;28;20064;-44
2022/10/27 05:42:07;;;;;;;4.90;2.67;;;;;;;14.39;100.00;97259.16;5098693;28;20078;-41
2022/10/27 05:44:36;;;;;;;4.43;2.85;;;;;;;14.78;100.00;97258.09;5093783;28;20071;-45
2022/10/27 05:47:04;;;;;;;5.22;2.63;;;;;;;14.74;100.00;97259.38;5103245;28;20076;-42
2022/10/27 05:49:32;;;;;;;31.77;4.10;;;;;;;14.75;100.00;97263.69;5098880;28;20509;-45
2022/10/27 05:52:00;;;;;;;45.00;4.10;;;;;;;14.83;100.00;97267.28;5104481;28;20458;-42
2022/10/27 05:54:29;;;;;;;12.45;3.78;;;;;;;14.39;100.00;97260.97;5109354;28;20067;-45
2022/10/27 05:56:57;;;;;;;35.20;4.07;;;;;;;14.09;100.00;97265.59;5099278;28;20090;-42
2022/10/27 05:59:27;;;;;;;20.02;3.78;;;;;;;14.55;100.00;97269.13;5109032;28;20079;-42
2022/10/27 06:01:55;;;;;;;18.77;4.45;;;;;;;14.41;100.00;97272.25;5104485;28;20072;-45
2022/10/27 06:04:23;;;;;;;24.25;3.50;;;;;;;14.49;100.00;97270.53;5102344;28;20094;-47
2022/10/27 06:06:53;;;;;;;9.98;4.05;;;;;;;14.13;100.00;97271.44;5108595;28;20087;-46
2022/10/27 06:09:21;;;;;;;11.53;4.73;;;;;;;14.64;100.00;97278.84;5091082;28;20063;-42
2022/10/27 06:11:50;;;;;;;8.20;3.72;;;;;;;14.28;100.00;97272.63;5104842;28;20502;-42
2022/10/27 06:14:18;;;;;;;12.88;4.30;;;;;;;13.91;100.00;97277.94;5100979;28;20087;-43
2022/10/27 06:16:48;;;;;;;6.45;2.95;;;;;;;14.00;100.00;97280.56;5107832;28;20553;-45
2022/10/27 06:19:16;;;;;;;10.30;2.70;;;;;;;13.96;100.00;97291.59;5101768;28;20071;-49
2022/10/27 06:21:44;;;;;;;4.60;2.85;;;;;;;13.82;100.00;97279.63;5092762;28;20079;-42
2022/10/27 06:24:12;;;;;;;3.78;2.83;;;;;;;14.14;100.00;97289.00;5095422;28;20574;-46
2022/10/27 06:26:41;;;;;;;10.15;5.25;;;;;;;14.15;100.00;97291.53;5094242;28;20095;-43
2022/10/27 06:29:09;;;;;;;8.18;4.57;;;;;;;14.37;100.00;97284.97;5091139;28;20064;-44
2022/10/27 06:31:40;;;;;;;10.10;4.35;;;;;;;14.81;100.00;97284.34;5101214;28;20075;-43
2022/10/27 06:34:10;;;;;;;7.03;4.38;;;;;;;14.85;100.00;97294.50;5106050;28;20102;-44
2022/10/27 06:36:38;;;;;;;10.10;4.13;;;;;;;15.08;100.00;97302.88;5092820;28;20084;-45
2022/10/27 06:39:06;;;;;;;9.25;4.78;;;;;;;15.14;100.00;97302.25;5098360;28;20074;-46
2022/10/27 06:41:35;;;;;;;18.92;4.72;;;;;;;14.55;100.00;97308.94;5091302;28;20075;-42
2022/10/27 06:44:03;;;;;;;8.05;4.68;;;;;;;14.56;100.00;97313.28;5090222;28;20072;-43
2022/10/27 06:46:33;;;;;;;10.82;4.75;;;;;;;15.20;100.00;97308.75;5098688;28;20086;-44
2022/10/27 06:49:01;;;;;;;8.52;4.90;;;;;;;15.30;100.00;97303.38;5102492;28;20071;-47
2022/10/27 06:51:31;;;;;;;9.57;4.60;;;;;;;15.39;100.00;97303.28;5103911;28;20088;-42
2022/10/27 06:53:59;;;;;;;8.63;4.70;;;;;;;15.29;100.00;97307.03;5107538;28;20075;-43
2022/10/27 06:56:28;;;;;;;7.28;4.50;;;;;;;15.64;100.00;97306.13;5099782;28;20458;-44
2022/10/27 06:58:57;;;;;;;8.43;4.43;;;;;;;15.94;100.00;97309.34;5084997;28;20067;-42
2022/10/27 07:01:25;;;;;;;6.07;4.22;;;;;;;15.99;100.00;97312.38;5091075;28;20082;-44
2022/10/27 07:03:53;;;;;;;6.65;3.55;;;;;;;15.74;100.00;97317.53;5103547;28;20090;-46
2022/10/27 07:06:22;;;;;;;7.22;3.50;;;;;;;16.33;100.00;97315.88;5096846;28;20172;-44
2022/10/27 07:08:52;;;;;;;6.35;3.67;;;;;;;16.59;100.00;97309.66;5090649;28;20518;-46
2022/10/27 07:11:20;;;;;;;6.65;3.58;;;;;;;16.72;100.00;97315.34;5078839;28;20128;-45
2022/10/27 07:13:48;;;;;;;7.65;3.53;;;;;;;16.33;100.00;97312.38;5103320;28;20079;-44
2022/10/27 07:16:16;;;;;;;6.93;3.80;;;;;;;16.15;100.00;97312.47;5103538;28;20083;-44
2022/10/27 07:18:45;;;;;;;8.57;4.15;;;;;;;16.21;100.00;97317.16;5096685;28;20080;-48
2022/10/27 07:21:13;;;;;;;7.88;4.15;;;;;;;16.66;100.00;97315.19;5096235;28;20087;-43
2022/10/27 07:23:41;;;;;;;7.07;3.88;;;;;;;16.57;100.00;97314.31;5090061;28;20087;-48
2022/10/27 07:26:11;;;;;;;5.78;4.13;;;;;;;17.11;100.00;97309.47;5094624;28;20557;-45
2022/10/27 07:28:39;;;;;;;6.85;4.10;;;;;;;17.52;100.00;97320.16;5102219;28;20117;-47
2022/10/27 07:31:07;;;;;;;9.00;4.32;;;;;;;17.74;100.00;97323.97;5107453;28;20748;-46
2022/10/27 07:33:36;;;;;;;9.00;4.20;;;;;;;18.09;100.00;97319.28;5094810;28;20083;-43
2022/10/27 07:36:04;;;;;;;10.07;3.90;;;;;;;18.42;100.00;97314.69;5097254;28;20529;-45
2022/10/27 07:38:33;;;;;;;11.10;4.45;;;;;;;18.39;100.00;97315.03;5098857;28;20586;-47
2022/10/27 07:41:01;;;;;;;7.05;3.97;;;;;;;18.90;100.00;97310.97;5096286;28;20614;-42
2022/10/27 07:43:31;;;;;;;9.32;3.90;;;;;;;18.93;100.00;97313.28;5102852;28;20071;-45
2022/10/27 07:45:59;;;;;;;6.18;3.88;;;;;;;18.91;100.00;97317.13;5090516;28;20075;-42
2022/10/27 07:48:28;;;;;;;6.30;3.60;;;;;;;19.44;100.00;97313.59;5095837;28;20086;-48
2022/10/27 07:50:56;;;;;;;9.50;3.72;;;;;;;19.26;100.00;97325.59;5099836;28;20090;-45
2022/10/27 07:53:24;;;;;;;8.50;3.95;;;;;;;19.57;100.00;97322.84;5102126;28;20616;-44
2022/10/27 07:55:52;;;;;;;7.05;3.65;;;;;;;18.88;100.00;97325.50;5093651;28;20088;-47
2022/10/27 07:58:21;;;;;;;10.02;3.60;;;;;;;20.01;100.00;97325.66;5094772;28;20150;-50
2022/10/27 08:00:50;;;;;;;6.60;3.30;;;;;;;19.63;100.00;97330.19;5104795;28;20092;-47
2022/10/27 08:03:20;;;;;;;7.07;3.40;;;;;;;18.85;100.00;97331.19;5102409;28;20086;-46
2022/10/27 08:05:48;;;;;;;7.43;3.00;;;;;;;18.76;100.00;97340.28;5102476;28;20080;-43
2022/10/27 08:08:17;;;;;;;5.10;3.13;;;;;;;19.26;100.00;97329.09;5091742;28;20078;-43
2022/10/27 08:10:46;;;;;;;6.63;3.35;;;;;;;19.59;100.00;97324.34;5102076;28;20087;-48
2022/10/27 08:13:15;;;;;;;5.80;3.38;;;;;;;18.74;100.00;97333.25;5099228;28;20076;-44
2022/10/27 08:15:43;;;;;;;5.68;3.13;;;;;;;19.17;100.00;97330.19;5077922;28;20466;-42
2022/10/27 08:18:13;;;;;;;8.60;3.58;;;;;;;20.32;100.00;97314.78;5090529;28;20071;-48
2022/10/27 08:20:43;;;;;;;8.52;3.20;;;;;;;20.35;100.00;97313.59;5078223;28;20557;-42
2022/10/27 08:23:13;;;;;;;9.40;3.63;;;;;;;19.66;100.00;97325.31;5095675;28;20074;-41
2022/10/27 08:25:42;;;;;;;8.73;3.67;;;;;;;19.30;100.00;97325.06;5091623;28;20071;-41
2022/10/27 08:28:11;;;;;;;8.10;3.30;;;;;;;20.23;100.00;97323.09;5088767;28;20090;-46
2022/10/27 08:30:41;;;;;;;5.97;3.17;;;;;;;21.10;100.00;97321.34;5096387;28;20088;-44
2022/10/27 08:33:20;;;;;;;7.03;3.30;;;;;;;21.21;100.00;97322.69;5094039;28;20525;-46
2022/10/27 08:35:50;;;;;;;10.18;3.17;;;;;;;21.29;100.00;97316.38;5096314;28;20121;-46
2022/10/27 08:38:19;;;;;;;9.43;3.03;;;;;;;21.29;100.00;97319.88;5088970;28;20450;-45
2022/10/27 08:40:59;;;;;;;7.47;3.08;;;;;;;21.14;100.00;97326.34;5096407;28;20088;-41
2022/10/27 08:43:34;;;;;;;;;;;;;;;20.64;100.00;97326.16;5089388;28;20145;-50
2022/10/27 08:46:05;;;;;;;7.07;3.33;;;;;;;21.79;100.00;97333.38;5095604;28;19947;-43
2022/10/27 08:48:35;;;;;;;7.10;2.95;;;;;;;21.33;100.00;97334.59;5092858;28;20564;-46
2022/10/27 08:51:05;;;;;;;8.65;2.85;;;;;;;21.03;100.00;97325.81;5101566;28;20082;-49
2022/10/27 08:53:36;;;;;;;4.20;2.78;;;;;;;20.75;100.00;97325.69;5094933;28;20082;-46
2022/10/27 08:56:07;;;;;;;6.22;2.90;;;;;;;20.89;100.00;97325.81;5091394;28;20071;-46
2022/10/27 08:58:37;;;;;;;13.00;3.53;;;;;;;21.29;100.00;97324.41;5096062;28;20064;-45
2022/10/27 09:01:16;;;;;;;6.70;3.05;;;;;;;21.43;100.00;97318.19;5094237;28;20087;-42
2022/10/27 09:04:01;;;;;;;6.03;2.90;;;;;;;21.17;100.00;97313.38;5099576;28;20522;-46
2022/10/27 09:06:31;;;;;;;8.23;2.88;;;;;;;21.40;100.00;97313.19;5094649;28;20475;-48
2022/10/27 09:09:05;;;;;;;7.75;2.80;;;;;;;21.36;100.00;97316.47;5111826;28;20090;-47
2022/10/27 09:11:40;;;;;;;11.20;3.08;;;;;;;21.91;100.00;97318.38;5095087;28;20071;-44
2022/10/27 09:14:19;;;;;;;4.38;2.80;;;;;;;22.44;100.00;97313.41;5092432;28;20090;-45
2022/10/27 09:16:50;;;;;;;8.55;3.38;;;;;;;23.50;100.00;97310.22;5111618;28;20089;-46
2022/10/27 09:19:23;;;;;;;9.85;3.00;;;;;;;23.36;100.00;97314.75;5099167;28;20120;-43
2022/10/27 09:21:52;;;;;;;7.07;2.83;;;;;;;22.43;100.00;97319.78;5101155;28;20079;-47
2022/10/27 09:24:24;;;;;;;6.05;2.72;;;;;;;22.69;100.00;97310.22;5101856;28;20071;-49
2022/10/27 09:26:53;;;;;;;6.70;2.85;;;;;;;23.24;100.00;97313.72;5104157;28;20086;-46
2022/10/27 09:29:23;;;;;;;6.60;3.20;;;;;;;23.40;100.00;97302.56;5098679;28;20087;-45
2022/10/27 09:31:54;;;;;;;9.13;2.85;;;;;;;23.15;100.00;97304.16;5092208;28;20083;-43
2022/10/27 09:34:26;;;;;;;8.93;3.15;;;;;;;23.21;100.00;97303.38;5098976;28;20119;-43
2022/10/27 09:36:55;;;;;;;5.07;2.40;;;;;;;22.56;100.00;97288.63;5100968;28;20092;-48
2022/10/27 09:39:24;;;;;;;6.82;2.22;;;;;;;22.88;100.00;97292.47;5102343;28;20090;-44
2022/10/27 09:41:52;;;;;;;10.25;2.92;;;;;;;22.90;100.00;97290.41;5099217;28;20083;-46
2022/10/27 09:44:22;;;;;;;7.78;2.83;;;;;;;23.16;100.00;97287.00;5095804;28;20072;-43
2022/10/27 09:46:55;;;;;;;4.40;2.15;;;;;;;22.49;100.00;97294.81;5098922;28;20075;-42
2022/10/27 09:49:29;;;;;;;4.22;2.30;;;;;;;22.06;100.00;97296.81;5098795;28;20163;-49
2022/10/27 09:52:01;;;;;;;7.20;2.60;;;;;;;23.74;100.00;97289.16;5104427;28;20087;-41
2022/10/27 09:54:31;;;;;;;8.13;2.60;;;;;;;23.41;100.00;97288.06;5092824;28;20086;-42
2022/10/27 09:57:05;;;;;;;6.03;2.25;;;;;;;23.48;100.00;97282.69;5091662;28;20086;-47
2022/10/27 09:59:35;;;;;;;5.30;2.67;;;;;;;23.82;100.00;97294.34;5104153;28;20071;-44
2022/10/27 10:02:05;;;;;;;4.38;2.30;;;;;;;23.17;100.00;97294.03;5104647;28;20089;-47
2022/10/27 10:04:44;;;;;;;8.15;2.45;;;;;;;23.60;100.00;97289.09;5094226;28;20114;-46
2022/10/27 10:07:30;;;;;;;7.75;2.90;;;;;;;23.39;100.00;97297.38;5091520;28;20087;-48
2022/10/27 10:10:02;;;;;;;7.97;2.55;;;;;;;23.21;100.00;97304.19;5097650;28;20087;-46
2022/10/27 10:12:30;;;;;;;6.82;2.88;;;;;;;23.95;100.00;97298.88;5094933;28;20112;-45
2022/10/27 10:15:21;;;;;;;5.22;2.40;;;;;;;23.14;100.00;97302.53;5104133;28;20085;-42
2022/10/27 10:17:54;;;;;;;8.75;2.33;;;;;;;23.55;100.00;97288.91;5100701;28;20083;-42
2022/10/27 10:20:35;;;;;;;8.18;2.35;;;;;;;23.59;100.00;97283.94;5101989;28;20088;-43
2022/10/27 10:23:08;;;;;;;9.15;2.50;;;;;;;23.60;100.00;97290.97;5099830;28;20085;-49
2022/10/27 10:25:41;;;;;;;6.85;2.60;;;;;;;24.09;100.00;97293.28;5098521;28;20094;-44
2022/10/27 10:28:19;;;;;;;6.75;2.90;;;;;;;24.10;100.00;97286.84;5097503;28;20067;-44
2022/10/27 10:30:50;;;;;;;5.30;2.45;;;;;;;24.45;100.00;97299.22;5096725;28;20088;-42
2022/10/27 10:33:19;;;;;;;9.57;2.83;;;;;;;24.30;100.00;97289.50;5091202;28;20087;-44
2022/10/27 10:35:49;;;;;;;9.95;2.47;;;;;;;24.97;93.76;97294.66;5099494;28;20105;-44
2022/10/27 10:38:27;;;;;;;;;;;;;;;24.62;100.00;97295.84;5098659;28;20078;-47
2022/10/27 10:41:02;;;;;;;5.13;2.65;;;;;;;25.57;96.48;97293.28;5097491;28;19947;-46
2022/10/27 10:43:32;;;;;;;5.57;2.75;;;;;;;25.39;95.54;97287.78;5100610;28;20090;-44
2022/10/27 10:46:01;;;;;;;8.38;2.72;;;;;;;25.31;95.46;97285.34;5107718;28;20092;-47
2022/10/27 10:48:38;;;;;;;9.15;2.60;;;;;;;25.23;95.70;97293.72;5103758;28;20518;-49
2022/10/27 10:51:09;;;;;;;7.95;2.60;;;;;;;24.78;97.73;97281.06;5093702;28;20730;-42
2022/10/27 10:53:41;;;;;;;7.50;2.40;;;;;;;25.05;100.00;97280.91;5103892;28;20079;-47
2022/10/27 10:56:21;;;;;;;5.68;2.40;;;;;;;25.18;100.00;97271.94;5104108;28;20656;-44
2022/10/27 10:59:01;;;;;;;5.88;2.75;;;;;;;24.86;99.13;97279.97;5091290;28;20090;-45
2022/10/27 11:01:42;;;;;;;6.57;2.40;;;;;;;26.46;79.95;97276.84;5106039;28;20648;-45
2022/10/27 11:04:12;;;;;;;5.70;2.17;;;;;;;26.08;84.05;97269.75;5094536;28;20071;-46
2022/10/27 11:07:04;;;;;;;6.53;2.80;;;;;;;25.06;96.27;97274.47;5105370;28;20099;-46
2022/10/27 11:09:38;;;;;;;8.18;2.65;;;;;;;25.91;86.03;97271.38;5091052;28;20589;-49
2022/10/27 11:12:17;;;;;;;5.55;2.83;;;;;;;25.74;84.37;97273.78;5094519;28;20515;-49
2022/10/27 11:14:48;;;;;;;6.80;2.53;;;;;;;26.09;82.99;97255.22;5094629;28;20083;-44
2022/10/27 11:17:24;;;;;;;6.10;2.70;;;;;;;26.09;85.87;97257.09;5101707;28;20086;-49
2022/10/27 11:19:52;;;;;;;;;;;;;;;25.40;93.08;97267.84;5101980;28;20083;-46
2022/10/27 11:22:26;;;;;;;6.88;2.80;;;;;;;25.78;88.06;97265.03;5095329;28;20396;-48
2022/10/27 11:24:59;;;;;;;6.22;2.58;;;;;;;25.65;92.15;97259.75;5102664;28;20067;-42
2022/10/27 11:27:29;;;;;;;4.07;2.30;;;;;;;25.90;84.69;97256.22;5103172;28;20475;-51
2022/10/27 11:30:02;;;;;;;9.73;2.80;;;;;;;26.31;83.39;97252.91;5100873;28;20568;-47
2022/10/27 11:32:43;;;;;;;5.35;2.70;;;;;;;25.87;91.98;97249.38;5102916;28;20082;-44
2022/10/27 11:35:17;;;;;;;7.85;2.70;;;;;;;25.80;89.31;97248.63;5096738;28;20089;-50
2022/10/27 11:37:53;;;;;;;7.47;2.50;;;;;;;25.89;85.34;97249.19;5103465;28;20106;-48
2022/10/27 11:40:30;;;;;;;6.00;2.15;;;;;;;25.34;92.02;97249.81;5097361;28;20700;-43